Ault, Colorado
Current Conditions -  °F | °C
As of 11:15 PM on Wednesday 28 Jan 2015 (Local Time) from KGXY Reporting Station
Overcast Overcast  
Wind Chill: 36°   Ceiling: 9000
Heat Index: 45°   Visibility: 10mi
Dew Point: 25°   Wind: 24mph
Humidity: 46%   Direction: 10°N
Pressure: 30.28"   Gusts: 32mph
Location:  40.58°N, 104.73°W
Report Text: KGXY 290615Z AUTO 01021G28KT 10SM OVC090 07/M04 A3028 RMK AO1
Loading
Personal Weather Stations






























Interactive Weather Map New forecast layout! Learn more

10-Day Weather Forecast

Advertisements
Track Severe Weather on mobile